sensor_id;sensor_type;location;lat;lon;timestamp;P1;durP1;ratioP1;P2;durP2;ratioP2
60885;SDS011;46736;41.654;-8.438;2022-08-19T01:16:03;2.92;;;2.70;;
60885;SDS011;46736;41.654;-8.438;2022-08-19T01:18:09;6.97;;;4.03;;
60885;SDS011;46736;41.654;-8.438;2022-08-19T01:23:03;5.10;;;3.83;;
60885;SDS011;46736;41.654;-8.438;2022-08-19T01:27:36;10.00;;;3.85;;
60885;SDS011;46736;41.654;-8.438;2022-08-19T01:32:26;4.18;;;3.78;;
60885;SDS011;46736;41.654;-8.438;2022-08-19T01:34:26;3.53;;;3.33;;
60885;SDS011;46736;41.654;-8.438;2022-08-19T01:36:29;3.60;;;3.20;;
60885;SDS011;46736;41.654;-8.438;2022-08-19T01:44:07;5.82;;;3.30;;
60885;SDS011;46736;41.654;-8.438;2022-08-19T01:55:58;3.97;;;2.75;;
60885;SDS011;46736;41.654;-8.438;2022-08-19T01:57:59;4.53;;;3.03;;
60885;SDS011;46736;41.654;-8.438;2022-08-19T02:11:51;3.10;;;2.85;;
60885;SDS011;46736;41.654;-8.438;2022-08-19T02:16:30;3.72;;;3.42;;
60885;SDS011;46736;41.654;-8.438;2022-08-19T02:26:21;3.92;;;3.03;;
60885;SDS011;46736;41.654;-8.438;2022-08-19T02:44:59;7.28;;;3.00;;
60885;SDS011;46736;41.654;-8.438;2022-08-19T02:47:00;3.95;;;2.25;;
60885;SDS011;46736;41.654;-8.438;2022-08-19T02:51:25;7.40;;;3.80;;
60885;SDS011;46736;41.654;-8.438;2022-08-19T02:53:28;5.47;;;2.47;;
60885;SDS011;46736;41.654;-8.438;2022-08-19T02:55:30;5.43;;;3.15;;
60885;SDS011;46736;41.654;-8.438;2022-08-19T03:04:29;4.32;;;3.92;;
60885;SDS011;46736;41.654;-8.438;2022-08-19T03:06:30;5.38;;;3.80;;
60885;SDS011;46736;41.654;-8.438;2022-08-19T03:18:09;3.97;;;3.67;;
60885;SDS011;46736;41.654;-8.438;2022-08-19T03:20:10;3.92;;;3.05;;
60885;SDS011;46736;41.654;-8.438;2022-08-19T03:31:33;5.18;;;3.80;;
60885;SDS011;46736;41.654;-8.438;2022-08-19T03:33:35;5.30;;;3.03;;
60885;SDS011;46736;41.654;-8.438;2022-08-19T03:35:37;4.13;;;2.65;;
60885;SDS011;46736;41.654;-8.438;2022-08-19T03:37:38;4.00;;;3.65;;
60885;SDS011;46736;41.654;-8.438;2022-08-19T03:39:39;3.47;;;2.97;;
60885;SDS011;46736;41.654;-8.438;2022-08-19T03:43:52;2.63;;;2.40;;
60885;SDS011;46736;41.654;-8.438;2022-08-19T03:55:42;5.65;;;3.33;;
60885;SDS011;46736;41.654;-8.438;2022-08-19T03:57:44;2.70;;;2.50;;
60885;SDS011;46736;41.654;-8.438;2022-08-19T03:59:48;9.40;;;3.63;;
60885;SDS011;46736;41.654;-8.438;2022-08-19T04:21:03;4.07;;;2.60;;
60885;SDS011;46736;41.654;-8.438;2022-08-19T04:23:05;4.28;;;3.35;;
60885;SDS011;46736;41.654;-8.438;2022-08-19T04:25:17;4.65;;;3.42;;
60885;SDS011;46736;41.654;-8.438;2022-08-19T04:27:21;1.95;;;1.85;;
60885;SDS011;46736;41.654;-8.438;2022-08-19T04:29:23;3.78;;;3.47;;
60885;SDS011;46736;41.654;-8.438;2022-08-19T04:31:28;2.10;;;1.38;;
60885;SDS011;46736;41.654;-8.438;2022-08-19T04:40:47;3.92;;;2.70;;
60885;SDS011;46736;41.654;-8.438;2022-08-19T04:45:39;4.65;;;3.80;;
60885;SDS011;46736;41.654;-8.438;2022-08-19T04:50:03;2.55;;;1.77;;
60885;SDS011;46736;41.654;-8.438;2022-08-19T04:54:42;2.50;;;2.30;;
60885;SDS011;46736;41.654;-8.438;2022-08-19T04:59:18;4.45;;;4.15;;
60885;SDS011;46736;41.654;-8.438;2022-08-19T05:01:23;3.85;;;2.70;;
60885;SDS011;46736;41.654;-8.438;2022-08-19T05:03:30;5.93;;;3.70;;
60885;SDS011;46736;41.654;-8.438;2022-08-19T05:10:21;8.50;;;3.47;;
60885;SDS011;46736;41.654;-8.438;2022-08-19T05:12:25;3.78;;;2.30;;
60885;SDS011;46736;41.654;-8.438;2022-08-19T05:21:21;1.73;;;1.67;;
60885;SDS011;46736;41.654;-8.438;2022-08-19T05:26:20;3.50;;;3.22;;
60885;SDS011;46736;41.654;-8.438;2022-08-19T05:30:44;3.35;;;3.05;;
60885;SDS011;46736;41.654;-8.438;2022-08-19T05:35:05;2.17;;;2.03;;
60885;SDS011;46736;41.654;-8.438;2022-08-19T05:37:06;7.47;;;2.97;;
60885;SDS011;46736;41.654;-8.438;2022-08-19T05:39:11;8.25;;;4.80;;
60885;SDS011;46736;41.654;-8.438;2022-08-19T05:41:16;3.47;;;3.15;;
60885;SDS011;46736;41.654;-8.438;2022-08-19T05:43:18;4.95;;;3.55;;
60885;SDS011;46736;41.654;-8.438;2022-08-19T05:45:18;3.22;;;2.53;;
60885;SDS011;46736;41.654;-8.438;2022-08-19T05:47:21;4.70;;;2.92;;
60885;SDS011;46736;41.654;-8.438;2022-08-19T05:51:33;3.53;;;3.05;;
60885;SDS011;46736;41.654;-8.438;2022-08-19T05:56:17;3.70;;;2.85;;
60885;SDS011;46736;41.654;-8.438;2022-08-19T05:58:18;5.80;;;3.00;;
60885;SDS011;46736;41.654;-8.438;2022-08-19T06:07:34;3.60;;;2.42;;
60885;SDS011;46736;41.654;-8.438;2022-08-19T06:09:36;3.50;;;2.15;;
60885;SDS011;46736;41.654;-8.438;2022-08-19T06:13:53;1.70;;;1.60;;
60885;SDS011;46736;41.654;-8.438;2022-08-19T06:15:54;7.72;;;2.97;;
60885;SDS011;46736;41.654;-8.438;2022-08-19T06:17:58;5.15;;;3.80;;
60885;SDS011;46736;41.654;-8.438;2022-08-19T06:19:59;4.23;;;2.33;;
60885;SDS011;46736;41.654;-8.438;2022-08-19T06:22:02;4.80;;;4.30;;
60885;SDS011;46736;41.654;-8.438;2022-08-19T06:26:14;3.83;;;3.53;;
60885;SDS011;46736;41.654;-8.438;2022-08-19T06:30:54;2.35;;;2.15;;
60885;SDS011;46736;41.654;-8.438;2022-08-19T06:32:55;3.35;;;3.05;;
60885;SDS011;46736;41.654;-8.438;2022-08-19T06:34:56;2.45;;;2.35;;
60885;SDS011;46736;41.654;-8.438;2022-08-19T06:36:59;5.45;;;3.88;;
60885;SDS011;46736;41.654;-8.438;2022-08-19T06:43:57;5.70;;;2.75;;
60885;SDS011;46736;41.654;-8.438;2022-08-19T06:51:14;6.05;;;3.90;;
60885;SDS011;46736;41.654;-8.438;2022-08-19T06:55:42;5.75;;;2.90;;
60885;SDS011;46736;41.654;-8.438;2022-08-19T16:05:50;1.58;;;1.30;;
60885;SDS011;46736;41.654;-8.438;2022-08-19T16:08:07;2.67;;;1.27;;
60885;SDS011;46736;41.654;-8.438;2022-08-19T16:10:08;3.50;;;1.38;;
60885;SDS011;46736;41.654;-8.438;2022-08-19T16:12:11;2.75;;;1.55;;
60885;SDS011;46736;41.654;-8.438;2022-08-19T16:14:13;2.15;;;1.27;;
60885;SDS011;46736;41.654;-8.438;2022-08-19T16:16:15;2.30;;;1.23;;
60885;SDS011;46736;41.654;-8.438;2022-08-19T16:18:16;2.75;;;1.38;;
60885;SDS011;46736;41.654;-8.438;2022-08-19T16:20:16;2.25;;;1.52;;
60885;SDS011;46736;41.654;-8.438;2022-08-19T16:22:17;1.67;;;1.05;;
60885;SDS011;46736;41.654;-8.438;2022-08-19T16:24:20;2.20;;;0.80;;
60885;SDS011;46736;41.654;-8.438;2022-08-19T16:26:22;27.30;;;2.10;;
60885;SDS011;46736;41.654;-8.438;2022-08-19T16:28:25;2.10;;;1.13;;
60885;SDS011;46736;41.654;-8.438;2022-08-19T16:30:27;2.13;;;1.25;;
60885;SDS011;46736;41.654;-8.438;2022-08-19T16:32:28;2.33;;;1.25;;
60885;SDS011;46736;41.654;-8.438;2022-08-19T16:34:29;1.30;;;1.05;;
60885;SDS011;46736;41.654;-8.438;2022-08-19T16:36:30;1.35;;;1.25;;
60885;SDS011;46736;41.654;-8.438;2022-08-19T16:38:32;2.53;;;1.40;;
60885;SDS011;46736;41.654;-8.438;2022-08-19T16:40:33;6.28;;;1.98;;
60885;SDS011;46736;41.654;-8.438;2022-08-19T16:42:34;0.98;;;0.80;;
60885;SDS011;46736;41.654;-8.438;2022-08-19T16:44:36;7.88;;;1.65;;
60885;SDS011;46736;41.654;-8.438;2022-08-19T16:46:40;2.97;;;2.08;;
60885;SDS011;46736;41.654;-8.438;2022-08-19T16:48:41;4.18;;;2.08;;
60885;SDS011;46736;41.654;-8.438;2022-08-19T16:50:44;1.80;;;1.70;;
60885;SDS011;46736;41.654;-8.438;2022-08-19T16:52:46;5.35;;;1.45;;
60885;SDS011;46736;41.654;-8.438;2022-08-19T16:54:47;7.20;;;1.65;;
60885;SDS011;46736;41.654;-8.438;2022-08-19T16:56:48;2.33;;;1.63;;
60885;SDS011;46736;41.654;-8.438;2022-08-19T16:58:50;2.55;;;1.85;;
60885;SDS011;46736;41.654;-8.438;2022-08-19T17:00:53;2.35;;;2.00;;
60885;SDS011;46736;41.654;-8.438;2022-08-19T17:03:06;1.80;;;1.42;;
60885;SDS011;46736;41.654;-8.438;2022-08-19T17:05:09;3.20;;;1.33;;
60885;SDS011;46736;41.654;-8.438;2022-08-19T17:07:10;4.70;;;2.58;;
60885;SDS011;46736;41.654;-8.438;2022-08-19T17:09:14;3.38;;;2.35;;
60885;SDS011;46736;41.654;-8.438;2022-08-19T17:11:15;2.50;;;1.67;;
60885;SDS011;46736;41.654;-8.438;2022-08-19T17:13:17;1.55;;;1.45;;
60885;SDS011;46736;41.654;-8.438;2022-08-19T17:15:18;5.53;;;2.17;;
60885;SDS011;46736;41.654;-8.438;2022-08-19T17:17:19;1.50;;;1.40;;
60885;SDS011;46736;41.654;-8.438;2022-08-19T17:19:21;1.75;;;1.45;;
60885;SDS011;46736;41.654;-8.438;2022-08-19T17:21:22;1.50;;;1.40;;
60885;SDS011;46736;41.654;-8.438;2022-08-19T17:23:27;3.40;;;1.83;;
60885;SDS011;46736;41.654;-8.438;2022-08-19T17:25:29;2.53;;;1.40;;
60885;SDS011;46736;41.654;-8.438;2022-08-19T17:27:32;2.08;;;1.88;;
60885;SDS011;46736;41.654;-8.438;2022-08-19T17:29:33;2.38;;;2.17;;
60885;SDS011;46736;41.654;-8.438;2022-08-19T17:31:34;4.63;;;2.85;;
60885;SDS011;46736;41.654;-8.438;2022-08-19T17:33:36;2.50;;;1.63;;
60885;SDS011;46736;41.654;-8.438;2022-08-19T17:35:36;3.10;;;2.35;;
60885;SDS011;46736;41.654;-8.438;2022-08-19T17:37:42;1.67;;;1.55;;
60885;SDS011;46736;41.654;-8.438;2022-08-19T17:39:44;6.38;;;2.28;;
60885;SDS011;46736;41.654;-8.438;2022-08-19T17:41:44;5.30;;;1.83;;
60885;SDS011;46736;41.654;-8.438;2022-08-19T17:43:45;2.33;;;1.75;;
60885;SDS011;46736;41.654;-8.438;2022-08-19T17:45:46;2.03;;;1.75;;
60885;SDS011;46736;41.654;-8.438;2022-08-19T17:47:48;5.38;;;2.03;;
60885;SDS011;46736;41.654;-8.438;2022-08-19T17:49:49;2.33;;;2.13;;
60885;SDS011;46736;41.654;-8.438;2022-08-19T17:51:51;2.88;;;2.20;;
60885;SDS011;46736;41.654;-8.438;2022-08-19T17:53:52;3.33;;;2.05;;
60885;SDS011;46736;41.654;-8.438;2022-08-19T17:55:54;2.60;;;2.15;;
60885;SDS011;46736;41.654;-8.438;2022-08-19T17:57:54;6.18;;;2.35;;
60885;SDS011;46736;41.654;-8.438;2022-08-19T17:59:56;2.47;;;2.28;;
60885;SDS011;46736;41.654;-8.438;2022-08-19T18:01:57;3.85;;;2.67;;
60885;SDS011;46736;41.654;-8.438;2022-08-19T18:03:58;2.90;;;1.88;;
60885;SDS011;46736;41.654;-8.438;2022-08-19T18:06:00;5.22;;;2.78;;
60885;SDS011;46736;41.654;-8.438;2022-08-19T18:08:02;4.80;;;2.97;;
60885;SDS011;46736;41.654;-8.438;2022-08-19T18:10:04;2.78;;;1.58;;
60885;SDS011;46736;41.654;-8.438;2022-08-19T18:12:06;1.98;;;1.88;;
60885;SDS011;46736;41.654;-8.438;2022-08-19T18:14:08;1.85;;;1.75;;
60885;SDS011;46736;41.654;-8.438;2022-08-19T18:16:08;1.40;;;1.30;;
60885;SDS011;46736;41.654;-8.438;2022-08-19T18:18:12;2.45;;;1.75;;
60885;SDS011;46736;41.654;-8.438;2022-08-19T18:20:14;4.85;;;2.53;;
60885;SDS011;46736;41.654;-8.438;2022-08-19T18:24:37;2.38;;;2.05;;
60885;SDS011;46736;41.654;-8.438;2022-08-19T18:26:39;3.03;;;2.70;;
60885;SDS011;46736;41.654;-8.438;2022-08-19T18:28:40;2.45;;;2.13;;
60885;SDS011;46736;41.654;-8.438;2022-08-19T18:30:41;4.88;;;2.42;;
60885;SDS011;46736;41.654;-8.438;2022-08-19T18:32:42;2.05;;;1.85;;
60885;SDS011;46736;41.654;-8.438;2022-08-19T18:34:44;2.72;;;1.58;;
60885;SDS011;46736;41.654;-8.438;2022-08-19T18:36:45;3.20;;;2.10;;
60885;SDS011;46736;41.654;-8.438;2022-08-19T18:38:46;2.15;;;1.77;;
60885;SDS011;46736;41.654;-8.438;2022-08-19T18:41:03;1.70;;;1.60;;
60885;SDS011;46736;41.654;-8.438;2022-08-19T18:43:19;5.93;;;1.30;;
60885;SDS011;46736;41.654;-8.438;2022-08-19T18:45:36;3.00;;;1.75;;
60885;SDS011;46736;41.654;-8.438;2022-08-19T18:47:53;3.63;;;1.58;;
60885;SDS011;46736;41.654;-8.438;2022-08-19T18:50:09;2.47;;;2.28;;
60885;SDS011;46736;41.654;-8.438;2022-08-19T18:52:12;5.85;;;2.00;;
60885;SDS011;46736;41.654;-8.438;2022-08-19T18:54:12;2.20;;;2.00;;
60885;SDS011;46736;41.654;-8.438;2022-08-19T18:56:14;8.88;;;1.77;;
60885;SDS011;46736;41.654;-8.438;2022-08-19T18:58:17;2.05;;;1.85;;
60885;SDS011;46736;41.654;-8.438;2022-08-19T19:00:18;2.65;;;2.45;;
60885;SDS011;46736;41.654;-8.438;2022-08-19T19:02:18;1.73;;;1.38;;
60885;SDS011;46736;41.654;-8.438;2022-08-19T19:04:23;3.22;;;2.25;;
60885;SDS011;46736;41.654;-8.438;2022-08-19T19:06:29;16.20;;;2.95;;
60885;SDS011;46736;41.654;-8.438;2022-08-19T19:08:37;2.33;;;1.80;;
60885;SDS011;46736;41.654;-8.438;2022-08-19T19:10:40;5.32;;;2.85;;
60885;SDS011;46736;41.654;-8.438;2022-08-19T19:12:42;2.38;;;1.83;;
60885;SDS011;46736;41.654;-8.438;2022-08-19T19:14:45;8.53;;;2.53;;
60885;SDS011;46736;41.654;-8.438;2022-08-19T19:16:45;3.13;;;1.90;;
60885;SDS011;46736;41.654;-8.438;2022-08-19T19:18:47;5.28;;;2.63;;
60885;SDS011;46736;41.654;-8.438;2022-08-19T19:20:51;5.68;;;3.53;;
60885;SDS011;46736;41.654;-8.438;2022-08-19T19:22:52;14.50;;;2.22;;
60885;SDS011;46736;41.654;-8.438;2022-08-19T19:24:53;3.05;;;2.72;;
60885;SDS011;46736;41.654;-8.438;2022-08-19T19:26:54;4.38;;;2.35;;
60885;SDS011;46736;41.654;-8.438;2022-08-19T19:28:57;2.90;;;2.38;;
60885;SDS011;46736;41.654;-8.438;2022-08-19T19:30:58;2.33;;;2.13;;
60885;SDS011;46736;41.654;-8.438;2022-08-19T19:32:59;3.67;;;2.75;;
60885;SDS011;46736;41.654;-8.438;2022-08-19T19:35:00;4.22;;;2.00;;
60885;SDS011;46736;41.654;-8.438;2022-08-19T19:37:01;7.45;;;2.63;;
60885;SDS011;46736;41.654;-8.438;2022-08-19T19:39:02;2.95;;;2.20;;
60885;SDS011;46736;41.654;-8.438;2022-08-19T19:41:04;2.67;;;2.47;;
60885;SDS011;46736;41.654;-8.438;2022-08-19T19:43:05;15.38;;;13.77;;
60885;SDS011;46736;41.654;-8.438;2022-08-19T19:45:05;12.32;;;11.15;;
60885;SDS011;46736;41.654;-8.438;2022-08-19T19:47:07;8.98;;;5.88;;
60885;SDS011;46736;41.654;-8.438;2022-08-19T19:49:09;5.78;;;5.28;;
60885;SDS011;46736;41.654;-8.438;2022-08-19T19:51:11;5.30;;;3.65;;
60885;SDS011;46736;41.654;-8.438;2022-08-19T19:53:12;5.10;;;4.60;;
60885;SDS011;46736;41.654;-8.438;2022-08-19T19:55:14;4.57;;;3.92;;
60885;SDS011;46736;41.654;-8.438;2022-08-19T19:57:17;5.85;;;4.10;;
60885;SDS011;46736;41.654;-8.438;2022-08-19T19:59:17;6.93;;;4.53;;
60885;SDS011;46736;41.654;-8.438;2022-08-19T20:01:20;11.82;;;6.30;;
60885;SDS011;46736;41.654;-8.438;2022-08-19T20:03:25;11.60;;;4.97;;
60885;SDS011;46736;41.654;-8.438;2022-08-19T20:05:26;5.18;;;4.65;;
60885;SDS011;46736;41.654;-8.438;2022-08-19T20:07:27;11.85;;;6.88;;
60885;SDS011;46736;41.654;-8.438;2022-08-19T20:09:45;8.75;;;5.40;;
60885;SDS011;46736;41.654;-8.438;2022-08-19T20:11:48;9.23;;;6.55;;
60885;SDS011;46736;41.654;-8.438;2022-08-19T20:14:08;8.93;;;6.22;;
60885;SDS011;46736;41.654;-8.438;2022-08-19T20:16:14;7.93;;;6.25;;
60885;SDS011;46736;41.654;-8.438;2022-08-19T20:18:14;11.90;;;4.80;;
60885;SDS011;46736;41.654;-8.438;2022-08-19T20:20:15;12.82;;;6.50;;
60885;SDS011;46736;41.654;-8.438;2022-08-19T20:22:18;15.80;;;10.85;;
60885;SDS011;46736;41.654;-8.438;2022-08-19T20:24:20;13.13;;;9.57;;
60885;SDS011;46736;41.654;-8.438;2022-08-19T20:26:27;8.45;;;7.63;;
60885;SDS011;46736;41.654;-8.438;2022-08-19T20:28:28;7.90;;;6.82;;
60885;SDS011;46736;41.654;-8.438;2022-08-19T20:30:29;8.23;;;7.10;;
60885;SDS011;46736;41.654;-8.438;2022-08-19T20:32:31;7.00;;;6.00;;
60885;SDS011;46736;41.654;-8.438;2022-08-19T20:34:31;6.47;;;5.07;;
60885;SDS011;46736;41.654;-8.438;2022-08-19T20:36:33;7.13;;;4.82;;
60885;SDS011;46736;41.654;-8.438;2022-08-19T20:38:35;15.80;;;6.85;;
60885;SDS011;46736;41.654;-8.438;2022-08-19T20:40:38;10.25;;;6.18;;
60885;SDS011;46736;41.654;-8.438;2022-08-19T20:42:41;9.32;;;5.18;;
60885;SDS011;46736;41.654;-8.438;2022-08-19T20:44:43;8.65;;;5.45;;
60885;SDS011;46736;41.654;-8.438;2022-08-19T20:46:43;6.05;;;5.43;;
60885;SDS011;46736;41.654;-8.438;2022-08-19T20:48:47;6.65;;;5.70;;
60885;SDS011;46736;41.654;-8.438;2022-08-19T20:50:48;6.38;;;5.05;;
60885;SDS011;46736;41.654;-8.438;2022-08-19T20:52:50;7.78;;;5.93;;
60885;SDS011;46736;41.654;-8.438;2022-08-19T20:54:50;7.05;;;6.35;;
60885;SDS011;46736;41.654;-8.438;2022-08-19T20:56:51;8.02;;;5.53;;
60885;SDS011;46736;41.654;-8.438;2022-08-19T20:58:52;6.88;;;6.28;;
60885;SDS011;46736;41.654;-8.438;2022-08-19T21:00:55;8.18;;;7.35;;
60885;SDS011;46736;41.654;-8.438;2022-08-19T21:02:59;8.55;;;7.72;;
60885;SDS011;46736;41.654;-8.438;2022-08-19T21:05:00;7.88;;;7.05;;
60885;SDS011;46736;41.654;-8.438;2022-08-19T21:07:00;10.00;;;8.98;;
60885;SDS011;46736;41.654;-8.438;2022-08-19T21:09:01;8.00;;;7.28;;
60885;SDS011;46736;41.654;-8.438;2022-08-19T21:11:02;6.47;;;5.95;;
60885;SDS011;46736;41.654;-8.438;2022-08-19T21:13:04;7.20;;;6.53;;
60885;SDS011;46736;41.654;-8.438;2022-08-19T21:15:05;6.55;;;5.90;;
60885;SDS011;46736;41.654;-8.438;2022-08-19T21:17:06;5.55;;;4.63;;
60885;SDS011;46736;41.654;-8.438;2022-08-19T21:19:07;7.20;;;5.57;;
60885;SDS011;46736;41.654;-8.438;2022-08-19T21:21:08;5.10;;;4.68;;
60885;SDS011;46736;41.654;-8.438;2022-08-19T21:23:10;5.68;;;5.18;;
60885;SDS011;46736;41.654;-8.438;2022-08-19T21:27:15;6.32;;;4.85;;
60885;SDS011;46736;41.654;-8.438;2022-08-19T21:29:16;4.75;;;4.45;;
60885;SDS011;46736;41.654;-8.438;2022-08-19T21:31:16;3.92;;;3.55;;
60885;SDS011;46736;41.654;-8.438;2022-08-19T21:33:20;3.90;;;3.55;;
60885;SDS011;46736;41.654;-8.438;2022-08-19T21:35:24;4.57;;;4.28;;
60885;SDS011;46736;41.654;-8.438;2022-08-19T21:37:25;5.35;;;4.82;;
60885;SDS011;46736;41.654;-8.438;2022-08-19T21:39:25;7.72;;;4.53;;
60885;SDS011;46736;41.654;-8.438;2022-08-19T21:41:26;8.10;;;4.63;;
60885;SDS011;46736;41.654;-8.438;2022-08-19T21:43:28;5.78;;;4.15;;
60885;SDS011;46736;41.654;-8.438;2022-08-19T21:45:30;4.45;;;3.92;;
60885;SDS011;46736;41.654;-8.438;2022-08-19T21:47:32;3.88;;;3.42;;
60885;SDS011;46736;41.654;-8.438;2022-08-19T21:49:33;4.75;;;4.13;;
60885;SDS011;46736;41.654;-8.438;2022-08-19T21:51:34;4.30;;;3.92;;
60885;SDS011;46736;41.654;-8.438;2022-08-19T21:53:35;4.28;;;3.25;;
60885;SDS011;46736;41.654;-8.438;2022-08-19T21:55:36;3.95;;;3.58;;
60885;SDS011;46736;41.654;-8.438;2022-08-19T21:57:38;3.75;;;3.45;;
60885;SDS011;46736;41.654;-8.438;2022-08-19T21:59:39;3.90;;;3.60;;
60885;SDS011;46736;41.654;-8.438;2022-08-19T22:01:41;4.22;;;3.42;;
60885;SDS011;46736;41.654;-8.438;2022-08-19T22:03:42;6.25;;;4.65;;
60885;SDS011;46736;41.654;-8.438;2022-08-19T22:05:43;3.72;;;3.47;;
60885;SDS011;46736;41.654;-8.438;2022-08-19T22:07:44;2.92;;;2.72;;
60885;SDS011;46736;41.654;-8.438;2022-08-19T22:09:47;4.47;;;3.45;;
60885;SDS011;46736;41.654;-8.438;2022-08-19T22:11:49;4.95;;;3.83;;
60885;SDS011;46736;41.654;-8.438;2022-08-19T22:13:50;4.57;;;4.28;;
60885;SDS011;46736;41.654;-8.438;2022-08-19T22:15:52;4.35;;;4.05;;
60885;SDS011;46736;41.654;-8.438;2022-08-19T22:17:55;9.25;;;5.38;;
60885;SDS011;46736;41.654;-8.438;2022-08-19T22:19:57;3.50;;;3.30;;
60885;SDS011;46736;41.654;-8.438;2022-08-19T22:21:59;4.85;;;4.43;;
60885;SDS011;46736;41.654;-8.438;2022-08-19T22:24:00;4.70;;;3.50;;
60885;SDS011;46736;41.654;-8.438;2022-08-19T22:26:00;5.72;;;3.60;;
60885;SDS011;46736;41.654;-8.438;2022-08-19T22:28:03;3.45;;;3.20;;
60885;SDS011;46736;41.654;-8.438;2022-08-19T22:30:06;2.78;;;2.53;;
60885;SDS011;46736;41.654;-8.438;2022-08-19T22:32:09;2.70;;;2.50;;
60885;SDS011;46736;41.654;-8.438;2022-08-19T22:34:10;3.30;;;2.95;;
60885;SDS011;46736;41.654;-8.438;2022-08-19T22:36:11;2.97;;;2.78;;
60885;SDS011;46736;41.654;-8.438;2022-08-19T22:38:13;2.53;;;2.33;;
60885;SDS011;46736;41.654;-8.438;2022-08-19T22:40:16;2.67;;;1.85;;
60885;SDS011;46736;41.654;-8.438;2022-08-19T22:42:18;5.28;;;2.00;;
60885;SDS011;46736;41.654;-8.438;2022-08-19T22:44:20;2.50;;;2.30;;
60885;SDS011;46736;41.654;-8.438;2022-08-19T22:46:20;3.20;;;2.90;;
60885;SDS011;46736;41.654;-8.438;2022-08-19T22:48:22;3.47;;;2.67;;
60885;SDS011;46736;41.654;-8.438;2022-08-19T22:50:25;3.97;;;2.65;;
60885;SDS011;46736;41.654;-8.438;2022-08-19T22:52:27;7.72;;;3.55;;
60885;SDS011;46736;41.654;-8.438;2022-08-19T22:54:28;4.97;;;3.35;;
60885;SDS011;46736;41.654;-8.438;2022-08-19T22:56:29;4.75;;;3.47;;
60885;SDS011;46736;41.654;-8.438;2022-08-19T22:58:30;3.17;;;2.97;;
60885;SDS011;46736;41.654;-8.438;2022-08-19T23:00:31;3.28;;;2.95;;
60885;SDS011;46736;41.654;-8.438;2022-08-19T23:02:36;5.32;;;4.00;;
60885;SDS011;46736;41.654;-8.438;2022-08-19T23:04:38;4.03;;;3.70;;
60885;SDS011;46736;41.654;-8.438;2022-08-19T23:06:39;6.57;;;4.05;;
60885;SDS011;46736;41.654;-8.438;2022-08-19T23:08:40;6.78;;;4.05;;
60885;SDS011;46736;41.654;-8.438;2022-08-19T23:10:42;4.47;;;4.07;;
60885;SDS011;46736;41.654;-8.438;2022-08-19T23:12:45;4.97;;;3.65;;
60885;SDS011;46736;41.654;-8.438;2022-08-19T23:14:47;4.22;;;3.80;;
60885;SDS011;46736;41.654;-8.438;2022-08-19T23:16:48;4.00;;;3.60;;
60885;SDS011;46736;41.654;-8.438;2022-08-19T23:18:48;3.92;;;3.55;;
60885;SDS011;46736;41.654;-8.438;2022-08-19T23:20:49;4.88;;;4.50;;
60885;SDS011;46736;41.654;-8.438;2022-08-19T23:23:04;6.53;;;4.13;;
60885;SDS011;46736;41.654;-8.438;2022-08-19T23:25:08;6.03;;;3.38;;
60885;SDS011;46736;41.654;-8.438;2022-08-19T23:27:11;4.53;;;3.67;;
60885;SDS011;46736;41.654;-8.438;2022-08-19T23:29:27;4.07;;;2.70;;
60885;SDS011;46736;41.654;-8.438;2022-08-19T23:31:43;4.53;;;2.90;;
60885;SDS011;46736;41.654;-8.438;2022-08-19T23:33:43;10.35;;;3.55;;
60885;SDS011;46736;41.654;-8.438;2022-08-19T23:35:44;7.15;;;3.97;;
60885;SDS011;46736;41.654;-8.438;2022-08-19T23:37:45;4.20;;;3.28;;
60885;SDS011;46736;41.654;-8.438;2022-08-19T23:39:47;3.20;;;2.90;;
60885;SDS011;46736;41.654;-8.438;2022-08-19T23:41:47;4.88;;;3.85;;
60885;SDS011;46736;41.654;-8.438;2022-08-19T23:43:48;4.60;;;3.53;;
60885;SDS011;46736;41.654;-8.438;2022-08-19T23:45:49;4.20;;;3.90;;
60885;SDS011;46736;41.654;-8.438;2022-08-19T23:47:51;5.10;;;3.28;;
60885;SDS011;46736;41.654;-8.438;2022-08-19T23:49:52;5.05;;;3.20;;
60885;SDS011;46736;41.654;-8.438;2022-08-19T23:51:53;7.65;;;3.45;;
60885;SDS011;46736;41.654;-8.438;2022-08-19T23:53:55;3.60;;;3.38;;
60885;SDS011;46736;41.654;-8.438;2022-08-19T23:55:56;6.72;;;3.00;;
60885;SDS011;46736;41.654;-8.438;2022-08-19T23:57:57;3.83;;;2.95;;
